Terminal Aerodrome Forecast
Issued by NWS Buffalo, NY

Home | Current Version | Previous Version | Text Only | Print | Product List | Glossary On
Versions: 1 2 3 4 5 6 7 8 9 10 11 12 13 14 15 16 17 18 19 20 21 22 23 24 25 26 27 28 29
356
FTUS41 KBUF 250520
TAFBUF
TAF
KBUF 250520Z 2506/2606 11012KT 6SM -RA OVC025 WS020/15040KT
     FM251100 17015G25KT 6SM -RA OVC025 WS020/18045KT
     FM251300 18016G35KT 6SM -RA OVC015 WS020/21050KT
     FM251500 20019G41KT P6SM OVC015 WS020/24055KT
     FM251600 21021G50KT P6SM BKN250
     FM252300 24018G45KT P6SM BKN250=

USA.gov is the U.S. government's official web portal to all federal, state and local government web resources and services.